sensor_id;sensor_type;location;lat;lon;timestamp;temperature;humidity
20398;DHT22;10358;49.590;11.030;2022-08-07T00:01:41;17.90;50.10
20398;DHT22;10358;49.590;11.030;2022-08-07T00:04:06;17.90;50.20
20398;DHT22;10358;49.590;11.030;2022-08-07T00:06:33;17.90;50.20
20398;DHT22;10358;49.590;11.030;2022-08-07T00:09:00;18.00;50.00
20398;DHT22;10358;49.590;11.030;2022-08-07T00:11:25;18.00;50.00
20398;DHT22;10358;49.590;11.030;2022-08-07T00:13:51;18.00;49.80
20398;DHT22;10358;49.590;11.030;2022-08-07T00:16:16;18.10;49.70
20398;DHT22;10358;49.590;11.030;2022-08-07T00:18:42;18.10;49.80
20398;DHT22;10358;49.590;11.030;2022-08-07T00:21:08;18.00;49.70
20398;DHT22;10358;49.590;11.030;2022-08-07T00:23:39;18.00;49.90
20398;DHT22;10358;49.590;11.030;2022-08-07T00:26:06;17.90;50.00
20398;DHT22;10358;49.590;11.030;2022-08-07T00:28:33;17.80;50.20
20398;DHT22;10358;49.590;11.030;2022-08-07T00:31:00;17.80;50.50
20398;DHT22;10358;49.590;11.030;2022-08-07T00:33:25;17.80;50.40
20398;DHT22;10358;49.590;11.030;2022-08-07T00:35:54;17.80;50.40
20398;DHT22;10358;49.590;11.030;2022-08-07T00:38:20;17.80;50.60
20398;DHT22;10358;49.590;11.030;2022-08-07T00:40:46;17.90;50.90
20398;DHT22;10358;49.590;11.030;2022-08-07T00:43:12;17.80;50.70
20398;DHT22;10358;49.590;11.030;2022-08-07T00:45:39;17.80;50.80
20398;DHT22;10358;49.590;11.030;2022-08-07T00:48:06;17.80;50.90
20398;DHT22;10358;49.590;11.030;2022-08-07T00:50:32;17.70;50.90
20398;DHT22;10358;49.590;11.030;2022-08-07T00:52:58;17.60;51.00
20398;DHT22;10358;49.590;11.030;2022-08-07T00:55:24;17.50;51.20
20398;DHT22;10358;49.590;11.030;2022-08-07T00:57:50;17.50;51.50
20398;DHT22;10358;49.590;11.030;2022-08-07T01:00:16;17.50;51.70
20398;DHT22;10358;49.590;11.030;2022-08-07T01:02:44;17.50;52.00
20398;DHT22;10358;49.590;11.030;2022-08-07T01:05:10;17.50;52.50
20398;DHT22;10358;49.590;11.030;2022-08-07T01:07:36;17.40;53.00
20398;DHT22;10358;49.590;11.030;2022-08-07T01:10:02;17.40;53.30
20398;DHT22;10358;49.590;11.030;2022-08-07T01:12:28;17.30;53.50
20398;DHT22;10358;49.590;11.030;2022-08-07T01:14:54;17.20;53.80
20398;DHT22;10358;49.590;11.030;2022-08-07T01:17:24;17.20;54.40
20398;DHT22;10358;49.590;11.030;2022-08-07T01:19:52;17.10;54.20
20398;DHT22;10358;49.590;11.030;2022-08-07T01:22:19;17.00;54.50
20398;DHT22;10358;49.590;11.030;2022-08-07T01:24:46;16.90;55.20
20398;DHT22;10358;49.590;11.030;2022-08-07T01:27:12;16.70;55.40
20398;DHT22;10358;49.590;11.030;2022-08-07T01:29:37;16.50;55.80
20398;DHT22;10358;49.590;11.030;2022-08-07T01:32:03;16.30;56.20
20398;DHT22;10358;49.590;11.030;2022-08-07T01:34:30;16.20;56.50
20398;DHT22;10358;49.590;11.030;2022-08-07T01:36:56;16.10;56.80
20398;DHT22;10358;49.590;11.030;2022-08-07T01:39:22;16.20;57.00
20398;DHT22;10358;49.590;11.030;2022-08-07T01:41:47;16.10;56.70
20398;DHT22;10358;49.590;11.030;2022-08-07T01:44:13;16.00;56.90
20398;DHT22;10358;49.590;11.030;2022-08-07T01:46:40;16.00;56.90
20398;DHT22;10358;49.590;11.030;2022-08-07T01:49:06;16.00;56.90
20398;DHT22;10358;49.590;11.030;2022-08-07T01:51:32;15.90;56.90
20398;DHT22;10358;49.590;11.030;2022-08-07T01:54:02;15.90;57.00
20398;DHT22;10358;49.590;11.030;2022-08-07T01:56:33;15.90;57.20
20398;DHT22;10358;49.590;11.030;2022-08-07T01:59:05;15.80;57.60
20398;DHT22;10358;49.590;11.030;2022-08-07T02:01:35;15.80;57.70
20398;DHT22;10358;49.590;11.030;2022-08-07T02:04:10;15.80;57.60
20398;DHT22;10358;49.590;11.030;2022-08-07T02:06:40;15.90;57.80
20398;DHT22;10358;49.590;11.030;2022-08-07T02:09:10;15.70;58.30
20398;DHT22;10358;49.590;11.030;2022-08-07T02:11:38;15.70;58.40
20398;DHT22;10358;49.590;11.030;2022-08-07T02:14:06;15.60;58.70
20398;DHT22;10358;49.590;11.030;2022-08-07T02:16:35;15.60;58.80
20398;DHT22;10358;49.590;11.030;2022-08-07T02:19:03;15.60;59.20
20398;DHT22;10358;49.590;11.030;2022-08-07T02:21:31;15.60;59.20
20398;DHT22;10358;49.590;11.030;2022-08-07T02:23:58;15.50;59.20
20398;DHT22;10358;49.590;11.030;2022-08-07T02:26:24;15.50;59.50
20398;DHT22;10358;49.590;11.030;2022-08-07T02:28:52;15.40;59.60
20398;DHT22;10358;49.590;11.030;2022-08-07T02:31:18;15.30;59.80
20398;DHT22;10358;49.590;11.030;2022-08-07T02:33:45;15.20;60.20
20398;DHT22;10358;49.590;11.030;2022-08-07T02:36:12;15.20;60.60
20398;DHT22;10358;49.590;11.030;2022-08-07T02:38:39;15.20;60.50
20398;DHT22;10358;49.590;11.030;2022-08-07T02:41:05;15.20;60.60
20398;DHT22;10358;49.590;11.030;2022-08-07T02:43:32;15.00;61.40
20398;DHT22;10358;49.590;11.030;2022-08-07T02:46:00;15.00;61.50
20398;DHT22;10358;49.590;11.030;2022-08-07T02:48:29;15.00;61.60
20398;DHT22;10358;49.590;11.030;2022-08-07T02:50:56;14.90;62.20
20398;DHT22;10358;49.590;11.030;2022-08-07T02:53:27;14.90;63.20
20398;DHT22;10358;49.590;11.030;2022-08-07T02:55:56;14.80;62.70
20398;DHT22;10358;49.590;11.030;2022-08-07T02:58:24;14.80;62.70
20398;DHT22;10358;49.590;11.030;2022-08-07T03:00:55;14.80;62.90
20398;DHT22;10358;49.590;11.030;2022-08-07T03:03:22;14.80;63.10
20398;DHT22;10358;49.590;11.030;2022-08-07T03:05:50;14.70;64.00
20398;DHT22;10358;49.590;11.030;2022-08-07T03:08:17;14.60;64.20
20398;DHT22;10358;49.590;11.030;2022-08-07T03:10:43;14.60;64.30
20398;DHT22;10358;49.590;11.030;2022-08-07T03:13:11;14.50;64.50
20398;DHT22;10358;49.590;11.030;2022-08-07T03:15:37;14.50;65.20
20398;DHT22;10358;49.590;11.030;2022-08-07T03:18:03;14.40;65.10
20398;DHT22;10358;49.590;11.030;2022-08-07T03:20:29;14.30;65.40
20398;DHT22;10358;49.590;11.030;2022-08-07T03:22:55;14.20;65.20
20398;DHT22;10358;49.590;11.030;2022-08-07T03:25:24;14.10;65.50
20398;DHT22;10358;49.590;11.030;2022-08-07T03:27:51;13.90;66.10
20398;DHT22;10358;49.590;11.030;2022-08-07T03:30:17;13.90;66.70
20398;DHT22;10358;49.590;11.030;2022-08-07T03:32:45;13.80;66.90
20398;DHT22;10358;49.590;11.030;2022-08-07T03:35:15;13.70;67.60
20398;DHT22;10358;49.590;11.030;2022-08-07T03:37:43;13.70;67.80
20398;DHT22;10358;49.590;11.030;2022-08-07T03:40:10;13.70;68.30
20398;DHT22;10358;49.590;11.030;2022-08-07T03:42:36;13.70;68.40
20398;DHT22;10358;49.590;11.030;2022-08-07T03:45:03;13.70;68.50
20398;DHT22;10358;49.590;11.030;2022-08-07T03:47:30;13.70;68.80
20398;DHT22;10358;49.590;11.030;2022-08-07T03:49:57;13.70;68.90
20398;DHT22;10358;49.590;11.030;2022-08-07T03:52:26;13.70;69.30
20398;DHT22;10358;49.590;11.030;2022-08-07T03:54:52;13.70;69.40
20398;DHT22;10358;49.590;11.030;2022-08-07T03:57:19;13.60;69.80
20398;DHT22;10358;49.590;11.030;2022-08-07T03:59:45;13.60;70.20
20398;DHT22;10358;49.590;11.030;2022-08-07T04:02:11;13.60;70.20
20398;DHT22;10358;49.590;11.030;2022-08-07T04:04:41;13.60;70.60
20398;DHT22;10358;49.590;11.030;2022-08-07T04:07:06;13.50;70.70
20398;DHT22;10358;49.590;11.030;2022-08-07T04:09:34;13.50;71.30
20398;DHT22;10358;49.590;11.030;2022-08-07T04:12:00;13.50;71.30
20398;DHT22;10358;49.590;11.030;2022-08-07T04:14:26;13.50;71.50
20398;DHT22;10358;49.590;11.030;2022-08-07T04:16:52;13.50;71.70
20398;DHT22;10358;49.590;11.030;2022-08-07T04:19:18;13.40;72.00
20398;DHT22;10358;49.590;11.030;2022-08-07T04:21:44;13.50;71.90
20398;DHT22;10358;49.590;11.030;2022-08-07T04:24:10;13.40;72.20
20398;DHT22;10358;49.590;11.030;2022-08-07T04:26:40;13.30;72.60
20398;DHT22;10358;49.590;11.030;2022-08-07T04:29:06;13.40;73.10
20398;DHT22;10358;49.590;11.030;2022-08-07T04:31:38;13.50;73.30
20398;DHT22;10358;49.590;11.030;2022-08-07T04:34:05;13.50;73.60
20398;DHT22;10358;49.590;11.030;2022-08-07T04:36:31;13.50;73.50
20398;DHT22;10358;49.590;11.030;2022-08-07T04:38:57;13.60;74.60
20398;DHT22;10358;49.590;11.030;2022-08-07T04:41:23;13.60;73.50
20398;DHT22;10358;49.590;11.030;2022-08-07T04:43:49;13.60;73.80
20398;DHT22;10358;49.590;11.030;2022-08-07T04:46:38;13.70;74.20
20398;DHT22;10358;49.590;11.030;2022-08-07T05:00:00;14.00;73.60
20398;DHT22;10358;49.590;11.030;2022-08-07T05:02:34;14.00;73.20
20398;DHT22;10358;49.590;11.030;2022-08-07T05:05:24;14.10;73.80
20398;DHT22;10358;49.590;11.030;2022-08-07T05:08:03;14.20;74.20
20398;DHT22;10358;49.590;11.030;2022-08-07T05:10:36;14.30;73.80
20398;DHT22;10358;49.590;11.030;2022-08-07T05:15:41;14.50;73.20
20398;DHT22;10358;49.590;11.030;2022-08-07T05:18:26;14.50;73.30
20398;DHT22;10358;49.590;11.030;2022-08-07T05:20:56;14.50;73.80
20398;DHT22;10358;49.590;11.030;2022-08-07T05:23:44;14.50;73.60
20398;DHT22;10358;49.590;11.030;2022-08-07T05:26:16;14.60;73.70
20398;DHT22;10358;49.590;11.030;2022-08-07T05:28:44;14.70;73.50
20398;DHT22;10358;49.590;11.030;2022-08-07T05:31:11;14.80;73.70
20398;DHT22;10358;49.590;11.030;2022-08-07T05:33:38;15.00;73.30
20398;DHT22;10358;49.590;11.030;2022-08-07T05:36:06;15.10;73.00
20398;DHT22;10358;49.590;11.030;2022-08-07T05:38:33;15.30;72.80
20398;DHT22;10358;49.590;11.030;2022-08-07T05:41:01;15.40;72.10
20398;DHT22;10358;49.590;11.030;2022-08-07T05:43:27;15.50;71.10
20398;DHT22;10358;49.590;11.030;2022-08-07T05:45:54;15.50;70.30
20398;DHT22;10358;49.590;11.030;2022-08-07T05:48:20;15.70;69.60
20398;DHT22;10358;49.590;11.030;2022-08-07T05:50:46;15.80;68.80
20398;DHT22;10358;49.590;11.030;2022-08-07T05:53:12;15.90;67.90
20398;DHT22;10358;49.590;11.030;2022-08-07T05:55:39;16.10;67.40
20398;DHT22;10358;49.590;11.030;2022-08-07T05:58:04;16.20;66.90
20398;DHT22;10358;49.590;11.030;2022-08-07T06:00:32;16.30;66.30
20398;DHT22;10358;49.590;11.030;2022-08-07T06:03:00;16.50;65.80
20398;DHT22;10358;49.590;11.030;2022-08-07T06:05:27;16.60;65.40
20398;DHT22;10358;49.590;11.030;2022-08-07T06:07:57;16.70;65.00
20398;DHT22;10358;49.590;11.030;2022-08-07T06:10:25;16.80;64.90
20398;DHT22;10358;49.590;11.030;2022-08-07T06:12:50;16.90;64.40
20398;DHT22;10358;49.590;11.030;2022-08-07T06:15:17;17.10;63.80
20398;DHT22;10358;49.590;11.030;2022-08-07T06:17:43;17.20;63.20
20398;DHT22;10358;49.590;11.030;2022-08-07T06:20:10;17.40;62.90
20398;DHT22;10358;49.590;11.030;2022-08-07T06:22:37;17.50;62.50
20398;DHT22;10358;49.590;11.030;2022-08-07T06:25:04;17.60;61.90
20398;DHT22;10358;49.590;11.030;2022-08-07T06:27:30;17.70;61.30
20398;DHT22;10358;49.590;11.030;2022-08-07T06:29:56;17.90;60.70
20398;DHT22;10358;49.590;11.030;2022-08-07T06:32:21;18.00;60.20
20398;DHT22;10358;49.590;11.030;2022-08-07T06:34:47;18.10;59.90
20398;DHT22;10358;49.590;11.030;2022-08-07T06:37:12;18.20;59.40
20398;DHT22;10358;49.590;11.030;2022-08-07T06:39:38;18.30;59.00
20398;DHT22;10358;49.590;11.030;2022-08-07T06:42:17;18.40;58.80
20398;DHT22;10358;49.590;11.030;2022-08-07T06:44:46;18.50;58.40
20398;DHT22;10358;49.590;11.030;2022-08-07T06:47:12;18.70;58.20
20398;DHT22;10358;49.590;11.030;2022-08-07T06:49:38;18.70;58.00
20398;DHT22;10358;49.590;11.030;2022-08-07T06:52:07;18.80;57.80
20398;DHT22;10358;49.590;11.030;2022-08-07T06:54:33;18.90;57.50
20398;DHT22;10358;49.590;11.030;2022-08-07T06:56:59;19.00;57.20
20398;DHT22;10358;49.590;11.030;2022-08-07T06:59:29;19.10;57.10
20398;DHT22;10358;49.590;11.030;2022-08-07T07:01:55;19.20;56.90
20398;DHT22;10358;49.590;11.030;2022-08-07T07:04:23;19.30;56.70
20398;DHT22;10358;49.590;11.030;2022-08-07T07:06:49;19.40;56.60
20398;DHT22;10358;49.590;11.030;2022-08-07T07:09:21;19.40;56.40
20398;DHT22;10358;49.590;11.030;2022-08-07T07:12:16;19.60;56.40
20398;DHT22;10358;49.590;11.030;2022-08-07T07:15:06;19.70;56.20
20398;DHT22;10358;49.590;11.030;2022-08-07T07:17:39;19.80;55.90
20398;DHT22;10358;49.590;11.030;2022-08-07T07:20:12;19.90;55.70
20398;DHT22;10358;49.590;11.030;2022-08-07T07:22:40;20.00;55.70
20398;DHT22;10358;49.590;11.030;2022-08-07T07:25:07;20.10;55.70
20398;DHT22;10358;49.590;11.030;2022-08-07T07:27:35;20.20;55.40
20398;DHT22;10358;49.590;11.030;2022-08-07T07:30:05;20.30;55.10
20398;DHT22;10358;49.590;11.030;2022-08-07T07:32:34;20.30;55.00
20398;DHT22;10358;49.590;11.030;2022-08-07T07:35:03;20.40;54.80
20398;DHT22;10358;49.590;11.030;2022-08-07T07:37:30;20.50;54.80
20398;DHT22;10358;49.590;11.030;2022-08-07T07:39:59;20.60;54.80
20398;DHT22;10358;49.590;11.030;2022-08-07T07:42:26;20.60;54.50
20398;DHT22;10358;49.590;11.030;2022-08-07T07:44:52;20.70;54.30
20398;DHT22;10358;49.590;11.030;2022-08-07T07:47:19;20.80;54.30
20398;DHT22;10358;49.590;11.030;2022-08-07T07:49:47;20.90;54.30
20398;DHT22;10358;49.590;11.030;2022-08-07T07:52:15;21.00;54.10
20398;DHT22;10358;49.590;11.030;2022-08-07T07:54:42;21.10;53.90
20398;DHT22;10358;49.590;11.030;2022-08-07T07:57:10;21.20;53.60
20398;DHT22;10358;49.590;11.030;2022-08-07T07:59:37;21.20;53.30
20398;DHT22;10358;49.590;11.030;2022-08-07T08:02:04;21.30;52.90
20398;DHT22;10358;49.590;11.030;2022-08-07T08:04:32;21.40;52.60
20398;DHT22;10358;49.590;11.030;2022-08-07T08:07:00;21.40;52.40
20398;DHT22;10358;49.590;11.030;2022-08-07T08:09:27;21.50;52.20
20398;DHT22;10358;49.590;11.030;2022-08-07T08:11:54;21.50;51.80
20398;DHT22;10358;49.590;11.030;2022-08-07T08:14:20;21.70;51.60
20398;DHT22;10358;49.590;11.030;2022-08-07T08:16:46;21.70;51.20
20398;DHT22;10358;49.590;11.030;2022-08-07T08:19:15;21.70;51.00
20398;DHT22;10358;49.590;11.030;2022-08-07T08:21:44;21.80;50.50
20398;DHT22;10358;49.590;11.030;2022-08-07T08:24:33;21.80;50.10
20398;DHT22;10358;49.590;11.030;2022-08-07T08:27:19;21.90;49.70
20398;DHT22;10358;49.590;11.030;2022-08-07T08:29:50;21.90;48.80
20398;DHT22;10358;49.590;11.030;2022-08-07T08:32:19;22.00;48.40
20398;DHT22;10358;49.590;11.030;2022-08-07T08:34:47;22.00;48.20
20398;DHT22;10358;49.590;11.030;2022-08-07T08:37:15;22.10;47.80
20398;DHT22;10358;49.590;11.030;2022-08-07T08:39:43;22.10;47.30
20398;DHT22;10358;49.590;11.030;2022-08-07T08:42:27;22.20;47.40
20398;DHT22;10358;49.590;11.030;2022-08-07T08:45:04;22.20;47.40
20398;DHT22;10358;49.590;11.030;2022-08-07T08:47:43;22.20;47.50
20398;DHT22;10358;49.590;11.030;2022-08-07T08:50:29;22.30;46.80
20398;DHT22;10358;49.590;11.030;2022-08-07T08:53:24;22.30;46.60
20398;DHT22;10358;49.590;11.030;2022-08-07T08:56:08;22.40;46.80
20398;DHT22;10358;49.590;11.030;2022-08-07T08:58:52;22.40;47.00
20398;DHT22;10358;49.590;11.030;2022-08-07T09:01:43;22.50;46.50
20398;DHT22;10358;49.590;11.030;2022-08-07T09:04:28;22.50;46.40
20398;DHT22;10358;49.590;11.030;2022-08-07T09:07:05;22.50;45.30
20398;DHT22;10358;49.590;11.030;2022-08-07T09:17:42;22.70;44.60
20398;DHT22;10358;49.590;11.030;2022-08-07T09:20:24;22.80;44.20
20398;DHT22;10358;49.590;11.030;2022-08-07T09:23:11;22.70;44.20
20398;DHT22;10358;49.590;11.030;2022-08-07T09:28:40;22.80;43.70
20398;DHT22;10358;49.590;11.030;2022-08-07T09:37:05;22.90;43.20
20398;DHT22;10358;49.590;11.030;2022-08-07T09:39:30;22.90;43.50
20398;DHT22;10358;49.590;11.030;2022-08-07T09:42:10;23.00;43.60
20398;DHT22;10358;49.590;11.030;2022-08-07T09:44:48;23.10;43.50
20398;DHT22;10358;49.590;11.030;2022-08-07T09:52:54;23.40;42.60
20398;DHT22;10358;49.590;11.030;2022-08-07T10:00:59;23.50;42.20
20398;DHT22;10358;49.590;11.030;2022-08-07T10:03:56;23.60;42.40
20398;DHT22;10358;49.590;11.030;2022-08-07T10:06:54;23.70;42.10
20398;DHT22;10358;49.590;11.030;2022-08-07T10:15:21;23.90;42.50
20398;DHT22;10358;49.590;11.030;2022-08-07T10:21:16;24.10;41.60
20398;DHT22;10358;49.590;11.030;2022-08-07T10:23:55;24.10;41.30
20398;DHT22;10358;49.590;11.030;2022-08-07T10:26:50;24.10;41.10
20398;DHT22;10358;49.590;11.030;2022-08-07T10:29:40;24.10;40.90
20398;DHT22;10358;49.590;11.030;2022-08-07T10:32:26;24.20;40.80
20398;DHT22;10358;49.590;11.030;2022-08-07T10:40:35;24.30;40.20
20398;DHT22;10358;49.590;11.030;2022-08-07T10:43:11;24.20;40.30
20398;DHT22;10358;49.590;11.030;2022-08-07T10:45:46;24.20;40.10
20398;DHT22;10358;49.590;11.030;2022-08-07T10:48:42;24.30;39.70
20398;DHT22;10358;49.590;11.030;2022-08-07T10:51:31;24.30;39.30
20398;DHT22;10358;49.590;11.030;2022-08-07T10:54:17;24.40;39.60
20398;DHT22;10358;49.590;11.030;2022-08-07T10:57:00;24.40;38.30
20398;DHT22;10358;49.590;11.030;2022-08-07T11:02:00;24.60;38.50
20398;DHT22;10358;49.590;11.030;2022-08-07T11:04:34;24.60;38.40
20398;DHT22;10358;49.590;11.030;2022-08-07T11:07:13;24.60;38.10
20398;DHT22;10358;49.590;11.030;2022-08-07T11:09:49;24.70;37.70
20398;DHT22;10358;49.590;11.030;2022-08-07T11:12:25;24.60;37.40
20398;DHT22;10358;49.590;11.030;2022-08-07T11:14:55;24.70;37.40
20398;DHT22;10358;49.590;11.030;2022-08-07T11:20:21;24.70;37.10
20398;DHT22;10358;49.590;11.030;2022-08-07T11:22:50;24.80;37.20
20398;DHT22;10358;49.590;11.030;2022-08-07T11:27:57;24.90;37.10
20398;DHT22;10358;49.590;11.030;2022-08-07T11:30:30;24.90;37.00
20398;DHT22;10358;49.590;11.030;2022-08-07T11:33:04;24.90;36.90
20398;DHT22;10358;49.590;11.030;2022-08-07T11:38:13;25.00;36.30
20398;DHT22;10358;49.590;11.030;2022-08-07T11:40:56;25.10;35.90
20398;DHT22;10358;49.590;11.030;2022-08-07T11:43:51;25.10;35.60
20398;DHT22;10358;49.590;11.030;2022-08-07T11:46:54;25.10;35.00
20398;DHT22;10358;49.590;11.030;2022-08-07T11:52:26;25.20;35.30
20398;DHT22;10358;49.590;11.030;2022-08-07T11:58:04;25.30;36.20
20398;DHT22;10358;49.590;11.030;2022-08-07T12:00:51;25.30;36.10
20398;DHT22;10358;49.590;11.030;2022-08-07T12:09:00;25.50;36.10
20398;DHT22;10358;49.590;11.030;2022-08-07T12:11:34;25.60;36.10
20398;DHT22;10358;49.590;11.030;2022-08-07T12:16:41;25.80;35.60
20398;DHT22;10358;49.590;11.030;2022-08-07T12:19:52;25.90;35.40
20398;DHT22;10358;49.590;11.030;2022-08-07T12:22:31;25.90;35.20
20398;DHT22;10358;49.590;11.030;2022-08-07T12:25:14;26.00;35.20
20398;DHT22;10358;49.590;11.030;2022-08-07T12:28:13;26.10;35.20
20398;DHT22;10358;49.590;11.030;2022-08-07T12:30:41;26.20;35.10
20398;DHT22;10358;49.590;11.030;2022-08-07T12:33:14;26.30;35.00
20398;DHT22;10358;49.590;11.030;2022-08-07T12:35:44;26.40;34.90
20398;DHT22;10358;49.590;11.030;2022-08-07T12:38:12;26.50;34.80
20398;DHT22;10358;49.590;11.030;2022-08-07T12:40:39;26.60;34.40
20398;DHT22;10358;49.590;11.030;2022-08-07T12:43:08;26.70;34.10
20398;DHT22;10358;49.590;11.030;2022-08-07T12:45:55;26.80;33.90
20398;DHT22;10358;49.590;11.030;2022-08-07T12:49:34;27.00;33.50
20398;DHT22;10358;49.590;11.030;2022-08-07T12:51:40;27.10;33.20
20398;DHT22;10358;49.590;11.030;2022-08-07T12:54:15;27.20;33.20
20398;DHT22;10358;49.590;11.030;2022-08-07T12:56:44;27.30;33.20
20398;DHT22;10358;49.590;11.030;2022-08-07T12:59:16;27.40;33.00
20398;DHT22;10358;49.590;11.030;2022-08-07T13:15:52;28.10;32.10
20398;DHT22;10358;49.590;11.030;2022-08-07T13:18:42;28.30;31.60
20398;DHT22;10358;49.590;11.030;2022-08-07T13:21:20;28.50;31.50
20398;DHT22;10358;49.590;11.030;2022-08-07T13:23:58;28.70;31.10
20398;DHT22;10358;49.590;11.030;2022-08-07T13:26:39;28.80;30.70
20398;DHT22;10358;49.590;11.030;2022-08-07T13:29:13;29.00;30.70
20398;DHT22;10358;49.590;11.030;2022-08-07T13:31:56;29.10;30.70
20398;DHT22;10358;49.590;11.030;2022-08-07T13:34:42;29.10;30.50
20398;DHT22;10358;49.590;11.030;2022-08-07T13:37:28;29.20;30.60
20398;DHT22;10358;49.590;11.030;2022-08-07T13:40:04;29.40;30.40
20398;DHT22;10358;49.590;11.030;2022-08-07T13:42:31;29.60;30.70
20398;DHT22;10358;49.590;11.030;2022-08-07T13:44:57;29.90;30.50
20398;DHT22;10358;49.590;11.030;2022-08-07T13:47:26;30.10;30.20
20398;DHT22;10358;49.590;11.030;2022-08-07T13:49:57;30.30;30.10
20398;DHT22;10358;49.590;11.030;2022-08-07T13:52:25;30.50;29.80
20398;DHT22;10358;49.590;11.030;2022-08-07T13:54:54;30.60;29.60
20398;DHT22;10358;49.590;11.030;2022-08-07T13:57:24;30.90;29.40
20398;DHT22;10358;49.590;11.030;2022-08-07T13:59:52;31.20;29.10
20398;DHT22;10358;49.590;11.030;2022-08-07T14:02:26;31.50;28.70
20398;DHT22;10358;49.590;11.030;2022-08-07T14:04:55;31.70;28.30
20398;DHT22;10358;49.590;11.030;2022-08-07T14:07:27;31.70;27.60
20398;DHT22;10358;49.590;11.030;2022-08-07T14:09:56;31.70;27.40
20398;DHT22;10358;49.590;11.030;2022-08-07T14:15:04;31.90;27.20
20398;DHT22;10358;49.590;11.030;2022-08-07T14:17:35;31.90;27.00
20398;DHT22;10358;49.590;11.030;2022-08-07T14:20:07;32.00;27.20
20398;DHT22;10358;49.590;11.030;2022-08-07T14:22:34;32.30;27.00
20398;DHT22;10358;49.590;11.030;2022-08-07T14:25:06;32.40;26.70
20398;DHT22;10358;49.590;11.030;2022-08-07T14:27:37;32.50;26.50
20398;DHT22;10358;49.590;11.030;2022-08-07T14:30:09;32.70;26.30
20398;DHT22;10358;49.590;11.030;2022-08-07T14:32:44;32.90;26.00
20398;DHT22;10358;49.590;11.030;2022-08-07T14:35:22;33.20;25.30
20398;DHT22;10358;49.590;11.030;2022-08-07T14:37:50;33.40;25.10
20398;DHT22;10358;49.590;11.030;2022-08-07T14:40:20;33.50;24.70
20398;DHT22;10358;49.590;11.030;2022-08-07T14:43:12;33.60;24.60
20398;DHT22;10358;49.590;11.030;2022-08-07T14:45:46;33.80;24.70
20398;DHT22;10358;49.590;11.030;2022-08-07T14:48:14;33.80;24.90
20398;DHT22;10358;49.590;11.030;2022-08-07T14:50:43;33.60;24.80
20398;DHT22;10358;49.590;11.030;2022-08-07T14:53:10;33.70;25.00
20398;DHT22;10358;49.590;11.030;2022-08-07T14:55:38;34.10;24.70
20398;DHT22;10358;49.590;11.030;2022-08-07T14:58:06;34.40;24.20
20398;DHT22;10358;49.590;11.030;2022-08-07T15:00:34;34.80;24.60
20398;DHT22;10358;49.590;11.030;2022-08-07T15:03:04;35.20;23.60
20398;DHT22;10358;49.590;11.030;2022-08-07T15:05:30;35.50;23.50
20398;DHT22;10358;49.590;11.030;2022-08-07T15:07:57;36.00;23.30
20398;DHT22;10358;49.590;11.030;2022-08-07T15:10:25;36.60;23.00
20398;DHT22;10358;49.590;11.030;2022-08-07T15:12:53;36.90;22.60
20398;DHT22;10358;49.590;11.030;2022-08-07T15:18:04;37.60;21.90
20398;DHT22;10358;49.590;11.030;2022-08-07T15:20:35;37.90;21.70
20398;DHT22;10358;49.590;11.030;2022-08-07T15:23:08;37.90;21.30
20398;DHT22;10358;49.590;11.030;2022-08-07T15:28:05;38.20;20.50
20398;DHT22;10358;49.590;11.030;2022-08-07T15:30:33;38.20;20.90
20398;DHT22;10358;49.590;11.030;2022-08-07T15:32:59;38.20;20.90
20398;DHT22;10358;49.590;11.030;2022-08-07T15:35:27;38.30;21.00
20398;DHT22;10358;49.590;11.030;2022-08-07T15:37:59;38.60;20.80
20398;DHT22;10358;49.590;11.030;2022-08-07T15:40:28;38.90;20.70
20398;DHT22;10358;49.590;11.030;2022-08-07T15:42:58;39.30;20.50
20398;DHT22;10358;49.590;11.030;2022-08-07T15:45:33;39.40;20.20
20398;DHT22;10358;49.590;11.030;2022-08-07T15:48:06;39.30;20.00
20398;DHT22;10358;49.590;11.030;2022-08-07T15:50:36;39.10;20.10
20398;DHT22;10358;49.590;11.030;2022-08-07T15:53:11;39.20;20.20
20398;DHT22;10358;49.590;11.030;2022-08-07T15:55:43;39.20;19.90
20398;DHT22;10358;49.590;11.030;2022-08-07T15:58:14;37.90;31.20
20398;DHT22;10358;49.590;11.030;2022-08-07T16:00:41;38.90;22.80
20398;DHT22;10358;49.590;11.030;2022-08-07T16:03:16;39.00;20.20
20398;DHT22;10358;49.590;11.030;2022-08-07T16:05:47;38.90;20.10
20398;DHT22;10358;49.590;11.030;2022-08-07T16:08:16;39.10;20.30
20398;DHT22;10358;49.590;11.030;2022-08-07T16:10:47;39.20;20.00
20398;DHT22;10358;49.590;11.030;2022-08-07T16:19:44;39.60;19.70
20398;DHT22;10358;49.590;11.030;2022-08-07T16:22:46;39.40;19.50
20398;DHT22;10358;49.590;11.030;2022-08-07T16:28:10;39.20;19.80
20398;DHT22;10358;49.590;11.030;2022-08-07T16:30:53;39.30;19.70
20398;DHT22;10358;49.590;11.030;2022-08-07T16:33:24;39.50;19.70
20398;DHT22;10358;49.590;11.030;2022-08-07T16:44:58;38.90;20.00
20398;DHT22;10358;49.590;11.030;2022-08-07T16:50:37;38.90;20.10
20398;DHT22;10358;49.590;11.030;2022-08-07T16:53:20;39.00;19.90
20398;DHT22;10358;49.590;11.030;2022-08-07T16:55:56;39.00;20.00
20398;DHT22;10358;49.590;11.030;2022-08-07T16:58:51;39.30;19.90
20398;DHT22;10358;49.590;11.030;2022-08-07T17:01:38;39.30;19.70
20398;DHT22;10358;49.590;11.030;2022-08-07T17:06:56;39.00;20.00
20398;DHT22;10358;49.590;11.030;2022-08-07T17:12:27;38.80;20.10
20398;DHT22;10358;49.590;11.030;2022-08-07T17:20:36;39.10;19.90
20398;DHT22;10358;49.590;11.030;2022-08-07T17:28:36;38.70;20.10
20398;DHT22;10358;49.590;11.030;2022-08-07T17:33:46;38.20;20.50
20398;DHT22;10358;49.590;11.030;2022-08-07T17:36:19;38.20;20.50
20398;DHT22;10358;49.590;11.030;2022-08-07T17:39:22;37.90;20.60
20398;DHT22;10358;49.590;11.030;2022-08-07T17:41:58;37.60;20.80
20398;DHT22;10358;49.590;11.030;2022-08-07T17:44:48;37.00;21.10
20398;DHT22;10358;49.590;11.030;2022-08-07T17:47:43;36.30;21.50
20398;DHT22;10358;49.590;11.030;2022-08-07T17:50:49;35.50;22.00
20398;DHT22;10358;49.590;11.030;2022-08-07T17:53:36;35.30;22.20
20398;DHT22;10358;49.590;11.030;2022-08-07T17:56:15;35.50;22.10
20398;DHT22;10358;49.590;11.030;2022-08-07T18:01:25;35.60;21.80
20398;DHT22;10358;49.590;11.030;2022-08-07T18:04:09;35.50;21.90
20398;DHT22;10358;49.590;11.030;2022-08-07T18:06:47;35.50;22.00
20398;DHT22;10358;49.590;11.030;2022-08-07T18:09:19;35.40;22.10
20398;DHT22;10358;49.590;11.030;2022-08-07T18:12:39;35.20;22.30